sensor_id;sensor_type;location;lat;lon;timestamp;P1;durP1;ratioP1;P2;durP2;ratioP2
19905;SDS011;10115;50.906;4.438;2024-03-02T00:00:25;29.23;;;27.93;;
19905;SDS011;10115;50.906;4.438;2024-03-02T00:02:52;42.13;;;40.27;;
19905;SDS011;10115;50.906;4.438;2024-03-02T00:05:19;39.53;;;37.80;;
19905;SDS011;10115;50.906;4.438;2024-03-02T00:07:55;41.03;;;39.17;;
19905;SDS011;10115;50.906;4.438;2024-03-02T00:10:42;39.90;;;38.10;;
19905;SDS011;10115;50.906;4.438;2024-03-02T00:13:08;40.60;;;38.70;;
19905;SDS011;10115;50.906;4.438;2024-03-02T00:18:13;27.63;;;26.43;;
19905;SDS011;10115;50.906;4.438;2024-03-02T00:20:41;33.97;;;32.47;;
19905;SDS011;10115;50.906;4.438;2024-03-02T00:23:08;22.87;;;21.83;;
19905;SDS011;10115;50.906;4.438;2024-03-02T00:26:08;38.50;;;36.80;;
19905;SDS011;10115;50.906;4.438;2024-03-02T00:28:29;21.50;;;20.60;;
19905;SDS011;10115;50.906;4.438;2024-03-02T00:31:02;20.50;;;19.60;;
19905;SDS011;10115;50.906;4.438;2024-03-02T00:33:41;37.47;;;35.77;;
19905;SDS011;10115;50.906;4.438;2024-03-02T00:36:11;36.47;;;34.87;;
19905;SDS011;10115;50.906;4.438;2024-03-02T00:38:47;32.30;;;30.83;;
19905;SDS011;10115;50.906;4.438;2024-03-02T00:41:24;19.57;;;18.77;;
19905;SDS011;10115;50.906;4.438;2024-03-02T00:46:34;42.57;;;40.67;;
19905;SDS011;10115;50.906;4.438;2024-03-02T00:49:02;28.77;;;27.47;;
19905;SDS011;10115;50.906;4.438;2024-03-02T00:51:32;37.83;;;36.13;;
19905;SDS011;10115;50.906;4.438;2024-03-02T00:54:00;18.40;;;17.60;;
19905;SDS011;10115;50.906;4.438;2024-03-02T00:56:29;16.67;;;15.97;;
19905;SDS011;10115;50.906;4.438;2024-03-02T00:58:56;41.23;;;39.43;;
19905;SDS011;10115;50.906;4.438;2024-03-02T01:01:22;41.03;;;39.17;;
19905;SDS011;10115;50.906;4.438;2024-03-02T01:03:48;35.40;;;33.67;;
19905;SDS011;10115;50.906;4.438;2024-03-02T01:06:14;36.30;;;34.70;;
19905;SDS011;10115;50.906;4.438;2024-03-02T01:08:41;40.40;;;38.50;;
19905;SDS011;10115;50.906;4.438;2024-03-02T01:11:06;40.07;;;38.27;;
19905;SDS011;10115;50.906;4.438;2024-03-02T01:13:32;41.47;;;39.57;;
19905;SDS011;10115;50.906;4.438;2024-03-02T01:15:58;40.73;;;38.93;;
19905;SDS011;10115;50.906;4.438;2024-03-02T01:18:24;40.47;;;38.67;;
19905;SDS011;10115;50.906;4.438;2024-03-02T01:20:50;40.20;;;38.40;;
19905;SDS011;10115;50.906;4.438;2024-03-02T01:23:22;42.17;;;40.30;;
19905;SDS011;10115;50.906;4.438;2024-03-02T01:25:48;39.00;;;37.23;;
19905;SDS011;10115;50.906;4.438;2024-03-02T01:28:15;43.33;;;41.43;;
19905;SDS011;10115;50.906;4.438;2024-03-02T01:30:41;34.37;;;32.87;;
19905;SDS011;10115;50.906;4.438;2024-03-02T01:33:07;35.67;;;34.07;;
19905;SDS011;10115;50.906;4.438;2024-03-02T01:35:33;40.50;;;38.70;;
19905;SDS011;10115;50.906;4.438;2024-03-02T01:38:02;40.63;;;38.83;;
19905;SDS011;10115;50.906;4.438;2024-03-02T01:40:28;19.93;;;19.10;;
19905;SDS011;10115;50.906;4.438;2024-03-02T01:42:54;19.50;;;18.63;;
19905;SDS011;10115;50.906;4.438;2024-03-02T01:45:20;17.07;;;16.17;;
19905;SDS011;10115;50.906;4.438;2024-03-02T01:47:46;17.80;;;17.00;;
19905;SDS011;10115;50.906;4.438;2024-03-02T01:50:12;32.93;;;31.43;;
19905;SDS011;10115;50.906;4.438;2024-03-02T01:52:39;37.10;;;35.50;;
19905;SDS011;10115;50.906;4.438;2024-03-02T01:55:05;18.33;;;17.53;;
19905;SDS011;10115;50.906;4.438;2024-03-02T01:57:31;20.00;;;19.10;;
19905;SDS011;10115;50.906;4.438;2024-03-02T01:59:57;42.10;;;40.20;;
19905;SDS011;10115;50.906;4.438;2024-03-02T02:02:23;19.67;;;18.77;;
19905;SDS011;10115;50.906;4.438;2024-03-02T02:04:49;17.57;;;16.57;;
19905;SDS011;10115;50.906;4.438;2024-03-02T02:07:14;18.73;;;17.73;;
19905;SDS011;10115;50.906;4.438;2024-03-02T02:09:43;18.87;;;17.70;;
19905;SDS011;10115;50.906;4.438;2024-03-02T02:12:09;19.20;;;18.40;;
19905;SDS011;10115;50.906;4.438;2024-03-02T02:14:35;17.47;;;16.77;;
19905;SDS011;10115;50.906;4.438;2024-03-02T02:17:01;20.70;;;19.80;;
19905;SDS011;10115;50.906;4.438;2024-03-02T02:19:27;42.20;;;40.27;;
19905;SDS011;10115;50.906;4.438;2024-03-02T02:21:52;38.90;;;37.20;;
19905;SDS011;10115;50.906;4.438;2024-03-02T02:24:18;39.27;;;37.50;;
19905;SDS011;10115;50.906;4.438;2024-03-02T02:26:44;19.07;;;18.00;;
19905;SDS011;10115;50.906;4.438;2024-03-02T02:29:09;28.87;;;27.60;;
19905;SDS011;10115;50.906;4.438;2024-03-02T02:31:41;33.13;;;31.67;;
19905;SDS011;10115;50.906;4.438;2024-03-02T02:34:07;41.40;;;39.50;;
19905;SDS011;10115;50.906;4.438;2024-03-02T02:36:34;42.40;;;40.50;;
19905;SDS011;10115;50.906;4.438;2024-03-02T02:39:04;26.00;;;24.90;;
19905;SDS011;10115;50.906;4.438;2024-03-02T02:41:32;37.43;;;35.73;;
19905;SDS011;10115;50.906;4.438;2024-03-02T02:43:57;19.80;;;18.30;;
19905;SDS011;10115;50.906;4.438;2024-03-02T02:46:23;18.17;;;17.37;;
19905;SDS011;10115;50.906;4.438;2024-03-02T02:48:49;19.70;;;18.90;;
19905;SDS011;10115;50.906;4.438;2024-03-02T02:51:16;18.80;;;18.00;;
19905;SDS011;10115;50.906;4.438;2024-03-02T02:53:42;19.90;;;18.73;;
19905;SDS011;10115;50.906;4.438;2024-03-02T02:56:08;32.03;;;30.57;;
19905;SDS011;10115;50.906;4.438;2024-03-02T02:58:33;24.73;;;23.60;;
19905;SDS011;10115;50.906;4.438;2024-03-02T03:00:59;43.67;;;41.57;;
19905;SDS011;10115;50.906;4.438;2024-03-02T03:03:25;27.37;;;25.97;;
19905;SDS011;10115;50.906;4.438;2024-03-02T03:05:50;24.03;;;22.80;;
19905;SDS011;10115;50.906;4.438;2024-03-02T03:08:16;25.37;;;24.27;;
19905;SDS011;10115;50.906;4.438;2024-03-02T03:10:42;40.20;;;38.40;;
19905;SDS011;10115;50.906;4.438;2024-03-02T03:13:07;41.30;;;39.40;;
19905;SDS011;10115;50.906;4.438;2024-03-02T03:15:36;21.57;;;20.50;;
19905;SDS011;10115;50.906;4.438;2024-03-02T03:18:03;41.27;;;39.47;;
19905;SDS011;10115;50.906;4.438;2024-03-02T03:20:29;22.10;;;20.80;;
19905;SDS011;10115;50.906;4.438;2024-03-02T03:22:55;18.07;;;17.27;;
19905;SDS011;10115;50.906;4.438;2024-03-02T03:25:24;17.47;;;16.77;;
19905;SDS011;10115;50.906;4.438;2024-03-02T03:27:50;18.00;;;17.20;;
19905;SDS011;10115;50.906;4.438;2024-03-02T03:30:17;18.70;;;17.90;;
19905;SDS011;10115;50.906;4.438;2024-03-02T03:32:43;17.80;;;17.00;;
19905;SDS011;10115;50.906;4.438;2024-03-02T03:35:09;16.60;;;15.83;;
19905;SDS011;10115;50.906;4.438;2024-03-02T03:37:34;16.10;;;15.33;;
19905;SDS011;10115;50.906;4.438;2024-03-02T03:40:01;15.87;;;15.17;;
19905;SDS011;10115;50.906;4.438;2024-03-02T03:42:27;15.63;;;14.90;;
19905;SDS011;10115;50.906;4.438;2024-03-02T03:44:53;16.60;;;15.80;;
19905;SDS011;10115;50.906;4.438;2024-03-02T03:47:19;17.30;;;15.90;;
19905;SDS011;10115;50.906;4.438;2024-03-02T03:49:45;18.57;;;17.63;;
19905;SDS011;10115;50.906;4.438;2024-03-02T03:52:11;34.17;;;32.60;;
19905;SDS011;10115;50.906;4.438;2024-03-02T03:54:36;28.37;;;27.13;;
19905;SDS011;10115;50.906;4.438;2024-03-02T03:57:03;43.50;;;41.47;;
19905;SDS011;10115;50.906;4.438;2024-03-02T03:59:29;41.23;;;39.43;;
19905;SDS011;10115;50.906;4.438;2024-03-02T04:01:55;43.10;;;41.20;;
19905;SDS011;10115;50.906;4.438;2024-03-02T04:04:21;26.63;;;25.33;;
19905;SDS011;10115;50.906;4.438;2024-03-02T04:06:47;25.83;;;24.57;;
19905;SDS011;10115;50.906;4.438;2024-03-02T04:09:12;20.80;;;19.90;;
19905;SDS011;10115;50.906;4.438;2024-03-02T04:11:38;36.20;;;34.60;;
19905;SDS011;10115;50.906;4.438;2024-03-02T04:14:04;40.50;;;38.70;;
19905;SDS011;10115;50.906;4.438;2024-03-02T04:16:31;24.23;;;23.13;;
19905;SDS011;10115;50.906;4.438;2024-03-02T04:18:56;20.37;;;19.40;;
19905;SDS011;10115;50.906;4.438;2024-03-02T04:21:22;19.63;;;18.80;;
19905;SDS011;10115;50.906;4.438;2024-03-02T04:23:48;20.30;;;19.40;;
19905;SDS011;10115;50.906;4.438;2024-03-02T04:26:14;25.20;;;23.80;;
19905;SDS011;10115;50.906;4.438;2024-03-02T04:28:40;28.37;;;27.10;;
19905;SDS011;10115;50.906;4.438;2024-03-02T04:31:05;34.70;;;33.07;;
19905;SDS011;10115;50.906;4.438;2024-03-02T04:33:31;44.03;;;42.13;;
19905;SDS011;10115;50.906;4.438;2024-03-02T04:35:57;21.83;;;20.57;;
19905;SDS011;10115;50.906;4.438;2024-03-02T04:38:22;23.27;;;21.90;;
19905;SDS011;10115;50.906;4.438;2024-03-02T04:40:48;39.80;;;38.00;;
19905;SDS011;10115;50.906;4.438;2024-03-02T04:43:14;30.83;;;29.43;;
19905;SDS011;10115;50.906;4.438;2024-03-02T04:45:41;43.40;;;41.30;;
19905;SDS011;10115;50.906;4.438;2024-03-02T04:48:07;24.10;;;23.00;;
19905;SDS011;10115;50.906;4.438;2024-03-02T04:50:33;22.80;;;21.80;;
19905;SDS011;10115;50.906;4.438;2024-03-02T04:52:59;40.83;;;39.03;;
19905;SDS011;10115;50.906;4.438;2024-03-02T04:55:24;21.23;;;20.33;;
19905;SDS011;10115;50.906;4.438;2024-03-02T04:58:02;42.07;;;40.10;;
19905;SDS011;10115;50.906;4.438;2024-03-02T05:00:28;23.30;;;22.30;;
19905;SDS011;10115;50.906;4.438;2024-03-02T05:02:53;23.40;;;22.30;;
19905;SDS011;10115;50.906;4.438;2024-03-02T05:05:19;25.30;;;24.10;;
19905;SDS011;10115;50.906;4.438;2024-03-02T05:07:44;29.10;;;27.80;;
19905;SDS011;10115;50.906;4.438;2024-03-02T05:10:10;27.13;;;25.37;;
19905;SDS011;10115;50.906;4.438;2024-03-02T05:12:39;44.53;;;42.53;;
19905;SDS011;10115;50.906;4.438;2024-03-02T05:15:07;19.77;;;18.77;;
19905;SDS011;10115;50.906;4.438;2024-03-02T05:17:35;35.47;;;33.80;;
19905;SDS011;10115;50.906;4.438;2024-03-02T05:20:01;22.30;;;21.20;;
19905;SDS011;10115;50.906;4.438;2024-03-02T05:22:28;23.57;;;22.23;;
19905;SDS011;10115;50.906;4.438;2024-03-02T05:24:54;18.37;;;17.57;;
19905;SDS011;10115;50.906;4.438;2024-03-02T05:27:20;20.50;;;19.60;;
19905;SDS011;10115;50.906;4.438;2024-03-02T05:29:45;41.00;;;39.07;;
19905;SDS011;10115;50.906;4.438;2024-03-02T05:32:12;42.43;;;40.53;;
19905;SDS011;10115;50.906;4.438;2024-03-02T05:34:37;20.87;;;19.97;;
19905;SDS011;10115;50.906;4.438;2024-03-02T05:37:03;21.80;;;20.80;;
19905;SDS011;10115;50.906;4.438;2024-03-02T05:39:29;21.57;;;20.57;;
19905;SDS011;10115;50.906;4.438;2024-03-02T05:41:54;20.60;;;19.20;;
19905;SDS011;10115;50.906;4.438;2024-03-02T05:44:20;20.43;;;19.37;;
19905;SDS011;10115;50.906;4.438;2024-03-02T05:46:45;18.07;;;17.00;;
19905;SDS011;10115;50.906;4.438;2024-03-02T05:49:11;34.53;;;33.03;;
19905;SDS011;10115;50.906;4.438;2024-03-02T05:51:37;19.13;;;18.33;;
19905;SDS011;10115;50.906;4.438;2024-03-02T05:54:02;18.53;;;17.30;;
19905;SDS011;10115;50.906;4.438;2024-03-02T05:56:28;18.67;;;17.83;;
19905;SDS011;10115;50.906;4.438;2024-03-02T05:58:54;16.53;;;15.83;;
19905;SDS011;10115;50.906;4.438;2024-03-02T06:01:41;17.40;;;16.63;;
19905;SDS011;10115;50.906;4.438;2024-03-02T06:04:08;17.87;;;17.07;;
19905;SDS011;10115;50.906;4.438;2024-03-02T06:06:36;38.20;;;36.50;;
19905;SDS011;10115;50.906;4.438;2024-03-02T06:09:02;46.37;;;43.70;;
19905;SDS011;10115;50.906;4.438;2024-03-02T06:11:34;20.50;;;19.40;;
19905;SDS011;10115;50.906;4.438;2024-03-02T06:14:01;45.57;;;43.50;;
19905;SDS011;10115;50.906;4.438;2024-03-02T06:16:27;24.00;;;22.83;;
19905;SDS011;10115;50.906;4.438;2024-03-02T06:18:52;34.80;;;33.20;;
19905;SDS011;10115;50.906;4.438;2024-03-02T06:21:19;19.77;;;18.93;;
19905;SDS011;10115;50.906;4.438;2024-03-02T06:23:45;21.07;;;20.03;;
19905;SDS011;10115;50.906;4.438;2024-03-02T06:26:11;19.93;;;19.03;;
19905;SDS011;10115;50.906;4.438;2024-03-02T06:28:37;38.40;;;36.07;;
19905;SDS011;10115;50.906;4.438;2024-03-02T06:31:03;45.60;;;43.37;;
19905;SDS011;10115;50.906;4.438;2024-03-02T06:33:29;44.70;;;42.60;;
19905;SDS011;10115;50.906;4.438;2024-03-02T06:35:54;22.07;;;21.07;;
19905;SDS011;10115;50.906;4.438;2024-03-02T06:38:20;40.40;;;38.60;;
19905;SDS011;10115;50.906;4.438;2024-03-02T06:40:46;38.50;;;36.80;;
19905;SDS011;10115;50.906;4.438;2024-03-02T06:43:11;37.80;;;36.00;;
19905;SDS011;10115;50.906;4.438;2024-03-02T06:45:37;24.63;;;22.90;;
19905;SDS011;10115;50.906;4.438;2024-03-02T06:48:03;20.47;;;19.47;;
19905;SDS011;10115;50.906;4.438;2024-03-02T06:50:28;45.00;;;43.00;;
19905;SDS011;10115;50.906;4.438;2024-03-02T06:52:54;22.63;;;21.63;;
19905;SDS011;10115;50.906;4.438;2024-03-02T06:55:21;24.27;;;22.87;;
19905;SDS011;10115;50.906;4.438;2024-03-02T06:57:47;43.13;;;41.03;;
19905;SDS011;10115;50.906;4.438;2024-03-02T07:00:12;24.10;;;23.00;;
19905;SDS011;10115;50.906;4.438;2024-03-02T07:02:39;27.30;;;26.10;;
19905;SDS011;10115;50.906;4.438;2024-03-02T07:05:07;22.20;;;20.97;;
19905;SDS011;10115;50.906;4.438;2024-03-02T07:07:33;23.37;;;22.27;;
19905;SDS011;10115;50.906;4.438;2024-03-02T07:10:00;20.30;;;19.40;;
19905;SDS011;10115;50.906;4.438;2024-03-02T07:12:26;20.27;;;19.37;;
19905;SDS011;10115;50.906;4.438;2024-03-02T07:14:51;25.57;;;24.00;;
19905;SDS011;10115;50.906;4.438;2024-03-02T07:17:43;40.43;;;38.63;;
19905;SDS011;10115;50.906;4.438;2024-03-02T07:20:09;28.10;;;26.73;;
19905;SDS011;10115;50.906;4.438;2024-03-02T07:22:37;32.67;;;31.10;;
19905;SDS011;10115;50.906;4.438;2024-03-02T07:25:03;23.63;;;22.53;;
19905;SDS011;10115;50.906;4.438;2024-03-02T07:27:28;42.57;;;40.67;;
19905;SDS011;10115;50.906;4.438;2024-03-02T07:29:56;33.50;;;32.00;;
19905;SDS011;10115;50.906;4.438;2024-03-02T07:32:22;21.93;;;21.03;;
19905;SDS011;10115;50.906;4.438;2024-03-02T07:34:47;23.87;;;22.77;;
19905;SDS011;10115;50.906;4.438;2024-03-02T07:37:13;45.50;;;43.43;;
19905;SDS011;10115;50.906;4.438;2024-03-02T07:39:38;23.27;;;21.67;;
19905;SDS011;10115;50.906;4.438;2024-03-02T07:42:04;25.80;;;24.60;;
19905;SDS011;10115;50.906;4.438;2024-03-02T07:44:31;19.23;;;18.33;;
19905;SDS011;10115;50.906;4.438;2024-03-02T07:46:56;20.57;;;19.40;;
19905;SDS011;10115;50.906;4.438;2024-03-02T07:49:22;19.93;;;18.87;;
19905;SDS011;10115;50.906;4.438;2024-03-02T07:51:48;20.90;;;19.90;;
19905;SDS011;10115;50.906;4.438;2024-03-02T07:54:13;37.83;;;35.80;;
19905;SDS011;10115;50.906;4.438;2024-03-02T07:56:39;21.87;;;20.70;;
19905;SDS011;10115;50.906;4.438;2024-03-02T07:59:05;19.20;;;18.40;;
19905;SDS011;10115;50.906;4.438;2024-03-02T08:01:32;27.63;;;26.23;;
19905;SDS011;10115;50.906;4.438;2024-03-02T08:04:01;24.13;;;22.93;;
19905;SDS011;10115;50.906;4.438;2024-03-02T08:06:29;21.80;;;20.80;;
19905;SDS011;10115;50.906;4.438;2024-03-02T08:08:58;40.13;;;37.63;;
19905;SDS011;10115;50.906;4.438;2024-03-02T08:11:25;42.90;;;40.80;;
19905;SDS011;10115;50.906;4.438;2024-03-02T08:13:52;41.10;;;39.20;;
19905;SDS011;10115;50.906;4.438;2024-03-02T08:16:20;20.37;;;19.30;;
19905;SDS011;10115;50.906;4.438;2024-03-02T08:18:47;20.27;;;18.90;;
19905;SDS011;10115;50.906;4.438;2024-03-02T08:21:13;19.57;;;18.63;;
19905;SDS011;10115;50.906;4.438;2024-03-02T08:23:40;18.03;;;17.13;;
19905;SDS011;10115;50.906;4.438;2024-03-02T08:26:07;18.73;;;17.87;;
19905;SDS011;10115;50.906;4.438;2024-03-02T08:28:33;17.43;;;16.50;;
19905;SDS011;10115;50.906;4.438;2024-03-02T08:30:59;17.67;;;16.60;;
19905;SDS011;10115;50.906;4.438;2024-03-02T08:33:25;16.93;;;15.97;;
19905;SDS011;10115;50.906;4.438;2024-03-02T08:35:51;18.83;;;18.03;;
19905;SDS011;10115;50.906;4.438;2024-03-02T08:38:17;22.07;;;20.23;;
19905;SDS011;10115;50.906;4.438;2024-03-02T08:40:42;21.23;;;19.93;;
19905;SDS011;10115;50.906;4.438;2024-03-02T08:43:09;42.13;;;40.20;;
19905;SDS011;10115;50.906;4.438;2024-03-02T08:45:35;42.63;;;40.73;;
19905;SDS011;10115;50.906;4.438;2024-03-02T08:48:01;24.03;;;22.30;;
19905;SDS011;10115;50.906;4.438;2024-03-02T08:50:26;19.30;;;18.30;;
19905;SDS011;10115;50.906;4.438;2024-03-02T08:52:52;28.70;;;27.40;;
19905;SDS011;10115;50.906;4.438;2024-03-02T08:55:17;20.33;;;19.30;;
19905;SDS011;10115;50.906;4.438;2024-03-02T08:57:43;17.97;;;17.07;;
19905;SDS011;10115;50.906;4.438;2024-03-02T09:00:09;23.30;;;22.20;;
19905;SDS011;10115;50.906;4.438;2024-03-02T09:02:35;20.57;;;19.47;;
19905;SDS011;10115;50.906;4.438;2024-03-02T09:05:01;18.03;;;17.03;;
19905;SDS011;10115;50.906;4.438;2024-03-02T09:07:27;17.60;;;16.20;;
19905;SDS011;10115;50.906;4.438;2024-03-02T09:09:52;15.90;;;15.07;;
19905;SDS011;10115;50.906;4.438;2024-03-02T09:12:18;16.53;;;15.70;;
19905;SDS011;10115;50.906;4.438;2024-03-02T09:14:44;15.73;;;14.93;;
19905;SDS011;10115;50.906;4.438;2024-03-02T09:17:11;15.53;;;14.30;;
19905;SDS011;10115;50.906;4.438;2024-03-02T09:19:39;14.53;;;13.83;;
19905;SDS011;10115;50.906;4.438;2024-03-02T09:22:05;13.57;;;12.63;;
19905;SDS011;10115;50.906;4.438;2024-03-02T09:24:31;15.63;;;14.43;;
19905;SDS011;10115;50.906;4.438;2024-03-02T09:26:58;15.00;;;14.20;;
19905;SDS011;10115;50.906;4.438;2024-03-02T09:29:24;15.50;;;14.47;;
19905;SDS011;10115;50.906;4.438;2024-03-02T09:31:50;14.27;;;13.57;;
19905;SDS011;10115;50.906;4.438;2024-03-02T09:34:16;14.27;;;13.53;;
19905;SDS011;10115;50.906;4.438;2024-03-02T09:36:42;14.23;;;13.53;;
19905;SDS011;10115;50.906;4.438;2024-03-02T09:39:08;14.97;;;14.00;;
19905;SDS011;10115;50.906;4.438;2024-03-02T09:41:34;14.60;;;13.57;;
19905;SDS011;10115;50.906;4.438;2024-03-02T09:44:02;14.33;;;13.63;;
19905;SDS011;10115;50.906;4.438;2024-03-02T09:46:27;14.60;;;13.70;;
19905;SDS011;10115;50.906;4.438;2024-03-02T09:48:53;14.13;;;13.53;;
19905;SDS011;10115;50.906;4.438;2024-03-02T09:51:19;15.10;;;14.10;;
19905;SDS011;10115;50.906;4.438;2024-03-02T09:53:45;14.87;;;13.87;;
19905;SDS011;10115;50.906;4.438;2024-03-02T09:56:12;14.37;;;13.63;;
19905;SDS011;10115;50.906;4.438;2024-03-02T09:58:38;14.80;;;13.60;;
19905;SDS011;10115;50.906;4.438;2024-03-02T10:01:07;16.07;;;15.07;;
19905;SDS011;10115;50.906;4.438;2024-03-02T10:03:35;13.97;;;13.27;;
19905;SDS011;10115;50.906;4.438;2024-03-02T10:08:47;14.03;;;13.30;;
19905;SDS011;10115;50.906;4.438;2024-03-02T10:11:26;13.47;;;12.77;;
19905;SDS011;10115;50.906;4.438;2024-03-02T10:14:04;13.67;;;12.97;;
19905;SDS011;10115;50.906;4.438;2024-03-02T10:16:33;14.43;;;13.60;;
19905;SDS011;10115;50.906;4.438;2024-03-02T10:21:48;13.13;;;12.53;;
19905;SDS011;10115;50.906;4.438;2024-03-02T10:24:17;12.90;;;12.40;;
19905;SDS011;10115;50.906;4.438;2024-03-02T10:26:44;14.33;;;12.97;;
19905;SDS011;10115;50.906;4.438;2024-03-02T10:29:10;12.77;;;12.00;;
19905;SDS011;10115;50.906;4.438;2024-03-02T10:31:37;13.37;;;12.77;;
19905;SDS011;10115;50.906;4.438;2024-03-02T10:34:04;14.00;;;13.10;;
19905;SDS011;10115;50.906;4.438;2024-03-02T10:36:30;13.47;;;12.17;;
19905;SDS011;10115;50.906;4.438;2024-03-02T10:38:56;12.90;;;12.30;;
19905;SDS011;10115;50.906;4.438;2024-03-02T10:41:24;13.83;;;12.93;;
19905;SDS011;10115;50.906;4.438;2024-03-02T10:43:55;14.53;;;13.00;;
19905;SDS011;10115;50.906;4.438;2024-03-02T10:46:29;13.20;;;12.50;;
19905;SDS011;10115;50.906;4.438;2024-03-02T10:48:56;13.53;;;12.93;;
19905;SDS011;10115;50.906;4.438;2024-03-02T10:51:24;13.67;;;12.87;;
19905;SDS011;10115;50.906;4.438;2024-03-02T10:53:50;13.10;;;12.47;;
19905;SDS011;10115;50.906;4.438;2024-03-02T10:56:29;13.20;;;12.50;;
19905;SDS011;10115;50.906;4.438;2024-03-02T10:59:01;13.03;;;12.27;;
19905;SDS011;10115;50.906;4.438;2024-03-02T11:01:47;13.77;;;12.90;;
19905;SDS011;10115;50.906;4.438;2024-03-02T11:04:15;14.07;;;13.17;;
19905;SDS011;10115;50.906;4.438;2024-03-02T11:06:49;13.80;;;13.00;;
19905;SDS011;10115;50.906;4.438;2024-03-02T11:09:16;13.50;;;12.50;;
19905;SDS011;10115;50.906;4.438;2024-03-02T11:11:45;13.57;;;12.43;;
19905;SDS011;10115;50.906;4.438;2024-03-02T11:14:21;13.63;;;12.73;;
19905;SDS011;10115;50.906;4.438;2024-03-02T11:16:50;13.10;;;12.50;;
19905;SDS011;10115;50.906;4.438;2024-03-02T11:19:17;13.83;;;12.90;;
19905;SDS011;10115;50.906;4.438;2024-03-02T11:21:43;13.37;;;12.67;;
19905;SDS011;10115;50.906;4.438;2024-03-02T11:27:02;13.13;;;12.40;;
19905;SDS011;10115;50.906;4.438;2024-03-02T11:32:06;13.03;;;11.97;;
19905;SDS011;10115;50.906;4.438;2024-03-02T11:34:39;13.50;;;12.50;;
19905;SDS011;10115;50.906;4.438;2024-03-02T11:37:10;13.67;;;12.77;;
19905;SDS011;10115;50.906;4.438;2024-03-02T11:39:36;12.97;;;12.07;;
19905;SDS011;10115;50.906;4.438;2024-03-02T11:42:05;11.80;;;11.20;;
19905;SDS011;10115;50.906;4.438;2024-03-02T11:44:35;11.43;;;10.93;;
19905;SDS011;10115;50.906;4.438;2024-03-02T11:47:02;12.23;;;11.47;;
19905;SDS011;10115;50.906;4.438;2024-03-02T11:49:38;12.10;;;10.87;;
19905;SDS011;10115;50.906;4.438;2024-03-02T11:52:07;12.30;;;11.60;;
19905;SDS011;10115;50.906;4.438;2024-03-02T11:54:34;13.20;;;12.17;;
19905;SDS011;10115;50.906;4.438;2024-03-02T11:57:02;12.70;;;11.67;;
19905;SDS011;10115;50.906;4.438;2024-03-02T11:59:28;12.23;;;11.50;;
19905;SDS011;10115;50.906;4.438;2024-03-02T12:01:55;11.90;;;11.30;;
19905;SDS011;10115;50.906;4.438;2024-03-02T12:04:23;12.63;;;11.47;;
19905;SDS011;10115;50.906;4.438;2024-03-02T12:06:56;11.30;;;10.70;;
19905;SDS011;10115;50.906;4.438;2024-03-02T12:09:29;11.37;;;10.77;;
19905;SDS011;10115;50.906;4.438;2024-03-02T12:12:08;10.83;;;10.33;;
19905;SDS011;10115;50.906;4.438;2024-03-02T12:14:36;12.40;;;11.60;;
19905;SDS011;10115;50.906;4.438;2024-03-02T12:17:02;11.97;;;11.23;;
19905;SDS011;10115;50.906;4.438;2024-03-02T12:19:29;12.00;;;11.17;;
19905;SDS011;10115;50.906;4.438;2024-03-02T12:21:58;11.63;;;11.03;;
19905;SDS011;10115;50.906;4.438;2024-03-02T12:24:26;12.43;;;11.40;;
19905;SDS011;10115;50.906;4.438;2024-03-02T12:26:53;11.70;;;10.90;;
19905;SDS011;10115;50.906;4.438;2024-03-02T12:29:19;12.23;;;11.30;;
19905;SDS011;10115;50.906;4.438;2024-03-02T12:31:47;11.50;;;10.90;;
19905;SDS011;10115;50.906;4.438;2024-03-02T12:34:14;11.73;;;10.73;;
19905;SDS011;10115;50.906;4.438;2024-03-02T12:36:41;11.83;;;11.10;;
19905;SDS011;10115;50.906;4.438;2024-03-02T12:39:10;13.67;;;11.77;;
19905;SDS011;10115;50.906;4.438;2024-03-02T12:41:36;11.40;;;10.70;;
19905;SDS011;10115;50.906;4.438;2024-03-02T12:44:03;11.17;;;10.57;;
19905;SDS011;10115;50.906;4.438;2024-03-02T12:46:29;11.37;;;10.83;;
19905;SDS011;10115;50.906;4.438;2024-03-02T12:48:55;11.37;;;10.43;;
19905;SDS011;10115;50.906;4.438;2024-03-02T12:51:21;10.67;;;10.13;;
19905;SDS011;10115;50.906;4.438;2024-03-02T12:53:52;11.13;;;10.50;;
19905;SDS011;10115;50.906;4.438;2024-03-02T12:56:19;13.07;;;12.13;;
19905;SDS011;10115;50.906;4.438;2024-03-02T12:58:45;12.00;;;11.30;;
19905;SDS011;10115;50.906;4.438;2024-03-02T13:01:11;11.37;;;10.77;;
19905;SDS011;10115;50.906;4.438;2024-03-02T13:03:40;11.83;;;11.23;;
19905;SDS011;10115;50.906;4.438;2024-03-02T13:06:06;11.17;;;10.47;;
19905;SDS011;10115;50.906;4.438;2024-03-02T13:08:33;10.63;;;10.03;;
19905;SDS011;10115;50.906;4.438;2024-03-02T13:10:59;11.07;;;10.27;;
19905;SDS011;10115;50.906;4.438;2024-03-02T13:13:25;11.83;;;10.90;;
19905;SDS011;10115;50.906;4.438;2024-03-02T13:15:54;11.23;;;10.37;;
19905;SDS011;10115;50.906;4.438;2024-03-02T13:18:21;12.67;;;11.43;;
19905;SDS011;10115;50.906;4.438;2024-03-02T13:20:47;10.70;;;10.00;;
19905;SDS011;10115;50.906;4.438;2024-03-02T13:23:13;10.87;;;10.37;;
19905;SDS011;10115;50.906;4.438;2024-03-02T13:25:39;11.77;;;11.03;;
19905;SDS011;10115;50.906;4.438;2024-03-02T13:28:05;10.93;;;10.33;;
19905;SDS011;10115;50.906;4.438;2024-03-02T13:30:32;10.60;;;10.10;;
19905;SDS011;10115;50.906;4.438;2024-03-02T13:32:58;10.47;;;9.93;;
19905;SDS011;10115;50.906;4.438;2024-03-02T13:35:23;10.67;;;10.17;;
19905;SDS011;10115;50.906;4.438;2024-03-02T13:37:49;11.57;;;10.40;;
19905;SDS011;10115;50.906;4.438;2024-03-02T13:40:15;10.17;;;9.60;;
19905;SDS011;10115;50.906;4.438;2024-03-02T13:42:45;10.23;;;9.83;;
19905;SDS011;10115;50.906;4.438;2024-03-02T13:45:11;11.47;;;10.60;;
19905;SDS011;10115;50.906;4.438;2024-03-02T13:47:37;10.43;;;9.83;;
19905;SDS011;10115;50.906;4.438;2024-03-02T13:50:03;10.57;;;10.07;;
19905;SDS011;10115;50.906;4.438;2024-03-02T13:52:30;10.87;;;10.03;;
19905;SDS011;10115;50.906;4.438;2024-03-02T13:54:56;10.27;;;9.87;;
19905;SDS011;10115;50.906;4.438;2024-03-02T13:57:21;10.77;;;10.23;;
19905;SDS011;10115;50.906;4.438;2024-03-02T13:59:47;11.23;;;10.60;;
19905;SDS011;10115;50.906;4.438;2024-03-02T14:02:13;11.37;;;10.87;;
19905;SDS011;10115;50.906;4.438;2024-03-02T14:04:40;12.17;;;11.20;;
19905;SDS011;10115;50.906;4.438;2024-03-02T14:07:07;11.43;;;10.93;;
19905;SDS011;10115;50.906;4.438;2024-03-02T14:09:33;11.10;;;10.60;;
19905;SDS011;10115;50.906;4.438;2024-03-02T14:11:59;11.50;;;11.00;;
19905;SDS011;10115;50.906;4.438;2024-03-02T14:14:28;11.20;;;10.70;;
19905;SDS011;10115;50.906;4.438;2024-03-02T14:16:57;12.10;;;11.13;;
19905;SDS011;10115;50.906;4.438;2024-03-02T14:19:28;11.70;;;11.10;;
19905;SDS011;10115;50.906;4.438;2024-03-02T14:21:54;11.83;;;11.23;;
19905;SDS011;10115;50.906;4.438;2024-03-02T14:24:20;12.00;;;11.43;;
19905;SDS011;10115;50.906;4.438;2024-03-02T14:26:49;12.13;;;11.40;;
19905;SDS011;10115;50.906;4.438;2024-03-02T14:29:14;11.77;;;11.20;;
19905;SDS011;10115;50.906;4.438;2024-03-02T14:31:40;11.90;;;11.17;;
19905;SDS011;10115;50.906;4.438;2024-03-02T14:34:05;11.00;;;10.53;;
19905;SDS011;10115;50.906;4.438;2024-03-02T14:36:31;10.73;;;10.23;;